sensor_id;sensor_type;location;lat;lon;timestamp;temperature;humidity
21207;DHT22;10761;48.532;8.026;2023-05-09T00:00:17;16.30;99.90
21207;DHT22;10761;48.532;8.026;2023-05-09T00:02:44;16.30;99.90
21207;DHT22;10761;48.532;8.026;2023-05-09T00:05:10;16.30;99.90
21207;DHT22;10761;48.532;8.026;2023-05-09T00:07:36;16.20;99.90
21207;DHT22;10761;48.532;8.026;2023-05-09T00:10:02;16.20;99.90
21207;DHT22;10761;48.532;8.026;2023-05-09T00:12:28;16.10;99.90
21207;DHT22;10761;48.532;8.026;2023-05-09T00:14:54;16.20;99.90
21207;DHT22;10761;48.532;8.026;2023-05-09T00:17:22;16.20;99.90
21207;DHT22;10761;48.532;8.026;2023-05-09T00:19:48;16.10;99.90
21207;DHT22;10761;48.532;8.026;2023-05-09T00:22:16;16.10;99.90
21207;DHT22;10761;48.532;8.026;2023-05-09T00:24:42;16.10;99.90
21207;DHT22;10761;48.532;8.026;2023-05-09T00:27:07;16.10;99.90
21207;DHT22;10761;48.532;8.026;2023-05-09T00:29:34;16.20;99.90
21207;DHT22;10761;48.532;8.026;2023-05-09T00:32:00;16.20;99.90
21207;DHT22;10761;48.532;8.026;2023-05-09T00:34:26;16.20;99.90
21207;DHT22;10761;48.532;8.026;2023-05-09T00:36:51;16.20;99.90
21207;DHT22;10761;48.532;8.026;2023-05-09T00:39:17;16.10;99.90
21207;DHT22;10761;48.532;8.026;2023-05-09T00:41:42;16.10;99.90
21207;DHT22;10761;48.532;8.026;2023-05-09T00:44:08;16.00;99.90
21207;DHT22;10761;48.532;8.026;2023-05-09T00:46:33;16.00;99.90
21207;DHT22;10761;48.532;8.026;2023-05-09T00:48:59;16.00;99.90
21207;DHT22;10761;48.532;8.026;2023-05-09T00:51:27;16.00;99.90
21207;DHT22;10761;48.532;8.026;2023-05-09T00:53:53;16.00;99.90
21207;DHT22;10761;48.532;8.026;2023-05-09T00:56:18;15.90;99.90
21207;DHT22;10761;48.532;8.026;2023-05-09T00:58:44;15.90;99.90
21207;DHT22;10761;48.532;8.026;2023-05-09T01:01:10;15.90;99.90
21207;DHT22;10761;48.532;8.026;2023-05-09T01:03:38;15.90;99.90
21207;DHT22;10761;48.532;8.026;2023-05-09T01:09:02;15.80;99.90
21207;DHT22;10761;48.532;8.026;2023-05-09T01:11:34;15.90;99.90
21207;DHT22;10761;48.532;8.026;2023-05-09T01:19:29;15.90;99.90
21207;DHT22;10761;48.532;8.026;2023-05-09T01:22:00;15.80;99.90
21207;DHT22;10761;48.532;8.026;2023-05-09T01:29:59;15.90;99.90
21207;DHT22;10761;48.532;8.026;2023-05-09T01:32:27;15.90;99.90
21207;DHT22;10761;48.532;8.026;2023-05-09T01:34:55;15.90;99.90
21207;DHT22;10761;48.532;8.026;2023-05-09T01:37:32;15.80;99.90
21207;DHT22;10761;48.532;8.026;2023-05-09T01:40:03;15.80;99.90
21207;DHT22;10761;48.532;8.026;2023-05-09T01:42:40;15.80;99.90
21207;DHT22;10761;48.532;8.026;2023-05-09T01:45:07;15.70;99.90
21207;DHT22;10761;48.532;8.026;2023-05-09T01:47:34;15.70;99.90
21207;DHT22;10761;48.532;8.026;2023-05-09T01:50:02;15.70;99.90
21207;DHT22;10761;48.532;8.026;2023-05-09T01:52:29;15.70;99.90
21207;DHT22;10761;48.532;8.026;2023-05-09T01:54:57;15.70;99.90
21207;DHT22;10761;48.532;8.026;2023-05-09T01:57:24;15.70;99.90
21207;DHT22;10761;48.532;8.026;2023-05-09T01:59:51;15.70;99.90
21207;DHT22;10761;48.532;8.026;2023-05-09T02:02:17;15.70;99.90
21207;DHT22;10761;48.532;8.026;2023-05-09T02:04:44;15.70;99.90
21207;DHT22;10761;48.532;8.026;2023-05-09T02:07:11;15.70;99.90
21207;DHT22;10761;48.532;8.026;2023-05-09T02:09:37;15.70;99.90
21207;DHT22;10761;48.532;8.026;2023-05-09T02:12:03;15.70;99.90
21207;DHT22;10761;48.532;8.026;2023-05-09T02:14:29;15.80;99.90
21207;DHT22;10761;48.532;8.026;2023-05-09T02:16:55;15.70;99.90
21207;DHT22;10761;48.532;8.026;2023-05-09T02:19:21;15.70;99.90
21207;DHT22;10761;48.532;8.026;2023-05-09T02:21:47;15.70;99.90
21207;DHT22;10761;48.532;8.026;2023-05-09T02:24:13;15.70;99.90
21207;DHT22;10761;48.532;8.026;2023-05-09T02:26:39;15.70;99.90
21207;DHT22;10761;48.532;8.026;2023-05-09T02:29:06;15.80;99.90
21207;DHT22;10761;48.532;8.026;2023-05-09T02:31:32;15.80;99.90
21207;DHT22;10761;48.532;8.026;2023-05-09T02:34:01;15.70;99.90
21207;DHT22;10761;48.532;8.026;2023-05-09T02:36:28;15.70;99.90
21207;DHT22;10761;48.532;8.026;2023-05-09T02:38:55;15.70;99.90
21207;DHT22;10761;48.532;8.026;2023-05-09T02:41:20;15.70;99.90
21207;DHT22;10761;48.532;8.026;2023-05-09T02:43:46;15.70;99.90
21207;DHT22;10761;48.532;8.026;2023-05-09T02:46:12;15.70;99.90
21207;DHT22;10761;48.532;8.026;2023-05-09T02:48:37;15.70;99.90
21207;DHT22;10761;48.532;8.026;2023-05-09T02:51:03;15.70;99.90
21207;DHT22;10761;48.532;8.026;2023-05-09T02:53:29;15.60;99.90
21207;DHT22;10761;48.532;8.026;2023-05-09T02:55:55;15.70;99.90
21207;DHT22;10761;48.532;8.026;2023-05-09T02:58:21;15.70;99.90
21207;DHT22;10761;48.532;8.026;2023-05-09T03:00:46;15.70;99.90
21207;DHT22;10761;48.532;8.026;2023-05-09T03:03:12;15.70;99.90
21207;DHT22;10761;48.532;8.026;2023-05-09T03:05:38;15.60;99.90
21207;DHT22;10761;48.532;8.026;2023-05-09T03:08:03;15.60;99.90
21207;DHT22;10761;48.532;8.026;2023-05-09T03:10:29;15.60;99.90
21207;DHT22;10761;48.532;8.026;2023-05-09T03:12:55;15.60;99.90
21207;DHT22;10761;48.532;8.026;2023-05-09T03:15:20;15.50;99.90
21207;DHT22;10761;48.532;8.026;2023-05-09T03:17:46;15.60;99.90
21207;DHT22;10761;48.532;8.026;2023-05-09T03:20:12;15.60;99.90
21207;DHT22;10761;48.532;8.026;2023-05-09T03:22:38;15.50;99.90
21207;DHT22;10761;48.532;8.026;2023-05-09T03:25:04;15.50;99.90
21207;DHT22;10761;48.532;8.026;2023-05-09T03:27:30;15.40;99.90
21207;DHT22;10761;48.532;8.026;2023-05-09T03:29:56;15.40;99.90
21207;DHT22;10761;48.532;8.026;2023-05-09T03:32:21;15.40;99.90
21207;DHT22;10761;48.532;8.026;2023-05-09T03:34:47;15.40;99.90
21207;DHT22;10761;48.532;8.026;2023-05-09T03:37:12;15.40;99.90
21207;DHT22;10761;48.532;8.026;2023-05-09T03:39:38;15.40;99.90
21207;DHT22;10761;48.532;8.026;2023-05-09T03:42:04;15.40;99.90
21207;DHT22;10761;48.532;8.026;2023-05-09T03:44:29;15.40;99.90
21207;DHT22;10761;48.532;8.026;2023-05-09T03:46:55;15.40;99.90
21207;DHT22;10761;48.532;8.026;2023-05-09T03:49:20;15.40;99.90
21207;DHT22;10761;48.532;8.026;2023-05-09T03:51:46;15.40;99.90
21207;DHT22;10761;48.532;8.026;2023-05-09T03:54:12;15.40;99.90
21207;DHT22;10761;48.532;8.026;2023-05-09T03:56:37;15.40;99.90
21207;DHT22;10761;48.532;8.026;2023-05-09T03:59:03;15.40;99.90
21207;DHT22;10761;48.532;8.026;2023-05-09T04:01:29;15.40;99.90
21207;DHT22;10761;48.532;8.026;2023-05-09T04:03:55;15.40;99.90
21207;DHT22;10761;48.532;8.026;2023-05-09T04:06:22;15.40;99.90
21207;DHT22;10761;48.532;8.026;2023-05-09T04:08:48;15.40;99.90
21207;DHT22;10761;48.532;8.026;2023-05-09T04:11:13;15.40;99.90
21207;DHT22;10761;48.532;8.026;2023-05-09T04:13:39;15.50;99.90
21207;DHT22;10761;48.532;8.026;2023-05-09T04:16:04;15.40;99.90
21207;DHT22;10761;48.532;8.026;2023-05-09T04:18:30;15.50;99.90
21207;DHT22;10761;48.532;8.026;2023-05-09T04:20:56;15.60;99.90
21207;DHT22;10761;48.532;8.026;2023-05-09T04:23:21;15.60;99.90
21207;DHT22;10761;48.532;8.026;2023-05-09T04:25:47;15.50;99.90
21207;DHT22;10761;48.532;8.026;2023-05-09T04:28:16;15.60;99.90
21207;DHT22;10761;48.532;8.026;2023-05-09T04:30:42;15.60;99.90
21207;DHT22;10761;48.532;8.026;2023-05-09T04:33:07;15.60;99.90
21207;DHT22;10761;48.532;8.026;2023-05-09T04:35:33;15.60;99.90
21207;DHT22;10761;48.532;8.026;2023-05-09T04:37:58;15.60;99.90
21207;DHT22;10761;48.532;8.026;2023-05-09T04:40:24;15.70;99.90
21207;DHT22;10761;48.532;8.026;2023-05-09T04:42:50;15.70;99.90
21207;DHT22;10761;48.532;8.026;2023-05-09T04:45:16;15.70;99.90
21207;DHT22;10761;48.532;8.026;2023-05-09T04:47:42;15.80;99.90
21207;DHT22;10761;48.532;8.026;2023-05-09T04:50:07;15.90;99.90
21207;DHT22;10761;48.532;8.026;2023-05-09T04:52:33;15.90;99.90
21207;DHT22;10761;48.532;8.026;2023-05-09T04:54:59;16.00;99.90
21207;DHT22;10761;48.532;8.026;2023-05-09T04:57:25;16.00;99.90
21207;DHT22;10761;48.532;8.026;2023-05-09T04:59:50;16.10;99.90
21207;DHT22;10761;48.532;8.026;2023-05-09T05:02:17;16.10;99.90
21207;DHT22;10761;48.532;8.026;2023-05-09T05:04:43;16.20;99.90
21207;DHT22;10761;48.532;8.026;2023-05-09T05:07:08;16.20;99.90
21207;DHT22;10761;48.532;8.026;2023-05-09T05:09:34;16.20;99.90
21207;DHT22;10761;48.532;8.026;2023-05-09T05:11:59;16.30;99.90
21207;DHT22;10761;48.532;8.026;2023-05-09T05:14:25;16.40;99.90
21207;DHT22;10761;48.532;8.026;2023-05-09T05:16:50;16.40;99.90
21207;DHT22;10761;48.532;8.026;2023-05-09T05:19:16;16.50;99.90
21207;DHT22;10761;48.532;8.026;2023-05-09T05:21:42;16.50;99.90
21207;DHT22;10761;48.532;8.026;2023-05-09T05:24:08;16.50;99.90
21207;DHT22;10761;48.532;8.026;2023-05-09T05:26:33;16.50;99.90
21207;DHT22;10761;48.532;8.026;2023-05-09T05:28:59;16.40;99.90
21207;DHT22;10761;48.532;8.026;2023-05-09T05:31:25;16.30;99.90
21207;DHT22;10761;48.532;8.026;2023-05-09T05:33:50;16.30;99.90
21207;DHT22;10761;48.532;8.026;2023-05-09T05:36:16;16.30;99.90
21207;DHT22;10761;48.532;8.026;2023-05-09T05:38:42;16.30;99.90
21207;DHT22;10761;48.532;8.026;2023-05-09T05:41:07;16.30;99.90
21207;DHT22;10761;48.532;8.026;2023-05-09T05:43:36;16.30;99.90
21207;DHT22;10761;48.532;8.026;2023-05-09T05:46:02;16.30;99.90
21207;DHT22;10761;48.532;8.026;2023-05-09T05:48:27;16.40;99.90
21207;DHT22;10761;48.532;8.026;2023-05-09T05:50:53;16.50;99.90
21207;DHT22;10761;48.532;8.026;2023-05-09T05:53:19;16.50;99.90
21207;DHT22;10761;48.532;8.026;2023-05-09T05:55:44;16.50;99.90
21207;DHT22;10761;48.532;8.026;2023-05-09T05:58:12;16.50;99.90
21207;DHT22;10761;48.532;8.026;2023-05-09T06:00:38;16.50;99.90
21207;DHT22;10761;48.532;8.026;2023-05-09T06:03:03;16.50;99.90
21207;DHT22;10761;48.532;8.026;2023-05-09T06:05:29;16.40;99.90
21207;DHT22;10761;48.532;8.026;2023-05-09T06:07:55;16.30;99.90
21207;DHT22;10761;48.532;8.026;2023-05-09T06:10:20;16.20;99.90
21207;DHT22;10761;48.532;8.026;2023-05-09T06:12:46;16.10;99.90
21207;DHT22;10761;48.532;8.026;2023-05-09T06:15:11;16.10;99.90
21207;DHT22;10761;48.532;8.026;2023-05-09T06:17:37;16.10;99.90
21207;DHT22;10761;48.532;8.026;2023-05-09T06:20:03;16.00;99.90
21207;DHT22;10761;48.532;8.026;2023-05-09T06:22:28;15.90;99.90
21207;DHT22;10761;48.532;8.026;2023-05-09T06:24:54;15.80;99.90
21207;DHT22;10761;48.532;8.026;2023-05-09T06:27:20;15.80;99.90
21207;DHT22;10761;48.532;8.026;2023-05-09T06:29:46;15.90;99.90
21207;DHT22;10761;48.532;8.026;2023-05-09T06:32:11;16.00;99.90
21207;DHT22;10761;48.532;8.026;2023-05-09T06:34:37;16.10;99.90
21207;DHT22;10761;48.532;8.026;2023-05-09T06:37:02;16.00;99.90
21207;DHT22;10761;48.532;8.026;2023-05-09T06:39:28;16.00;99.90
21207;DHT22;10761;48.532;8.026;2023-05-09T06:41:54;16.00;99.90
21207;DHT22;10761;48.532;8.026;2023-05-09T06:44:19;16.00;99.90
21207;DHT22;10761;48.532;8.026;2023-05-09T06:46:45;16.00;99.90
21207;DHT22;10761;48.532;8.026;2023-05-09T06:49:10;16.10;99.90
21207;DHT22;10761;48.532;8.026;2023-05-09T06:51:38;16.30;99.90
21207;DHT22;10761;48.532;8.026;2023-05-09T06:54:03;16.40;99.90
21207;DHT22;10761;48.532;8.026;2023-05-09T06:56:29;16.70;99.90
21207;DHT22;10761;48.532;8.026;2023-05-09T06:58:55;17.20;99.90
21207;DHT22;10761;48.532;8.026;2023-05-09T07:01:21;17.60;99.90
21207;DHT22;10761;48.532;8.026;2023-05-09T07:03:46;17.80;99.90
21207;DHT22;10761;48.532;8.026;2023-05-09T07:06:12;18.10;99.90
21207;DHT22;10761;48.532;8.026;2023-05-09T07:08:38;18.60;1.00
21207;DHT22;10761;48.532;8.026;2023-05-09T07:11:04;19.00;1.00
21207;DHT22;10761;48.532;8.026;2023-05-09T07:13:29;19.10;1.00
21207;DHT22;10761;48.532;8.026;2023-05-09T07:15:55;19.00;1.00
21207;DHT22;10761;48.532;8.026;2023-05-09T07:18:21;18.90;1.00
21207;DHT22;10761;48.532;8.026;2023-05-09T07:20:46;18.70;1.00
21207;DHT22;10761;48.532;8.026;2023-05-09T07:23:12;18.80;1.00
21207;DHT22;10761;48.532;8.026;2023-05-09T07:25:38;18.90;1.00
21207;DHT22;10761;48.532;8.026;2023-05-09T07:28:03;18.60;1.00
21207;DHT22;10761;48.532;8.026;2023-05-09T07:30:29;18.30;1.00
21207;DHT22;10761;48.532;8.026;2023-05-09T07:32:55;18.10;1.00
21207;DHT22;10761;48.532;8.026;2023-05-09T07:35:20;17.80;1.00
21207;DHT22;10761;48.532;8.026;2023-05-09T07:37:46;17.70;1.00
21207;DHT22;10761;48.532;8.026;2023-05-09T07:40:12;17.50;16.20
21207;DHT22;10761;48.532;8.026;2023-05-09T07:42:38;17.40;19.90
21207;DHT22;10761;48.532;8.026;2023-05-09T07:45:04;17.50;80.50
21207;DHT22;10761;48.532;8.026;2023-05-09T07:47:33;17.60;69.90
21207;DHT22;10761;48.532;8.026;2023-05-09T07:49:58;17.60;38.50
21207;DHT22;10761;48.532;8.026;2023-05-09T07:52:24;17.70;1.00
21207;DHT22;10761;48.532;8.026;2023-05-09T07:54:49;17.80;1.00
21207;DHT22;10761;48.532;8.026;2023-05-09T07:57:15;18.00;1.00
21207;DHT22;10761;48.532;8.026;2023-05-09T07:59:41;18.20;1.00
21207;DHT22;10761;48.532;8.026;2023-05-09T08:02:07;18.30;1.00
21207;DHT22;10761;48.532;8.026;2023-05-09T08:04:33;18.20;1.00
21207;DHT22;10761;48.532;8.026;2023-05-09T08:06:58;18.40;1.00
21207;DHT22;10761;48.532;8.026;2023-05-09T08:09:24;18.80;1.00
21207;DHT22;10761;48.532;8.026;2023-05-09T08:11:50;19.70;1.00
21207;DHT22;10761;48.532;8.026;2023-05-09T08:14:16;20.60;1.00
21207;DHT22;10761;48.532;8.026;2023-05-09T08:16:42;20.90;1.00
21207;DHT22;10761;48.532;8.026;2023-05-09T08:19:08;20.60;99.90
21207;DHT22;10761;48.532;8.026;2023-05-09T08:21:33;20.50;1.00
21207;DHT22;10761;48.532;8.026;2023-05-09T08:23:59;20.30;1.00
21207;DHT22;10761;48.532;8.026;2023-05-09T08:26:26;20.20;1.00
21207;DHT22;10761;48.532;8.026;2023-05-09T08:28:51;20.20;1.00
21207;DHT22;10761;48.532;8.026;2023-05-09T08:31:18;20.50;99.90
21207;DHT22;10761;48.532;8.026;2023-05-09T08:33:44;20.90;1.00
21207;DHT22;10761;48.532;8.026;2023-05-09T08:36:09;21.30;1.00
21207;DHT22;10761;48.532;8.026;2023-05-09T08:38:35;21.40;1.00
21207;DHT22;10761;48.532;8.026;2023-05-09T08:41:01;21.70;99.90
21207;DHT22;10761;48.532;8.026;2023-05-09T08:43:28;22.00;99.90
21207;DHT22;10761;48.532;8.026;2023-05-09T08:45:57;22.30;1.00
21207;DHT22;10761;48.532;8.026;2023-05-09T08:48:24;22.70;99.90
21207;DHT22;10761;48.532;8.026;2023-05-09T08:50:52;23.10;1.00
21207;DHT22;10761;48.532;8.026;2023-05-09T08:53:17;23.40;1.00
21207;DHT22;10761;48.532;8.026;2023-05-09T08:55:44;23.50;1.00
21207;DHT22;10761;48.532;8.026;2023-05-09T08:58:12;23.60;99.90
21207;DHT22;10761;48.532;8.026;2023-05-09T09:00:38;23.40;99.90
21207;DHT22;10761;48.532;8.026;2023-05-09T09:03:05;22.90;99.90
21207;DHT22;10761;48.532;8.026;2023-05-09T09:05:36;22.60;99.90
21207;DHT22;10761;48.532;8.026;2023-05-09T09:08:03;21.70;1.00
21207;DHT22;10761;48.532;8.026;2023-05-09T09:10:32;21.20;99.90
21207;DHT22;10761;48.532;8.026;2023-05-09T09:13:00;21.20;1.00
21207;DHT22;10761;48.532;8.026;2023-05-09T09:15:33;21.00;1.00
21207;DHT22;10761;48.532;8.026;2023-05-09T09:18:06;20.60;1.00
21207;DHT22;10761;48.532;8.026;2023-05-09T09:20:34;20.20;99.90
21207;DHT22;10761;48.532;8.026;2023-05-09T09:23:02;20.10;1.00
21207;DHT22;10761;48.532;8.026;2023-05-09T09:25:29;20.20;1.00
21207;DHT22;10761;48.532;8.026;2023-05-09T09:27:55;20.20;1.00
21207;DHT22;10761;48.532;8.026;2023-05-09T09:30:23;20.10;99.90
21207;DHT22;10761;48.532;8.026;2023-05-09T09:32:49;19.70;2.40
21207;DHT22;10761;48.532;8.026;2023-05-09T09:35:16;19.60;1.00
21207;DHT22;10761;48.532;8.026;2023-05-09T09:37:41;19.30;99.90
21207;DHT22;10761;48.532;8.026;2023-05-09T09:40:09;19.30;1.00
21207;DHT22;10761;48.532;8.026;2023-05-09T09:42:46;19.30;99.90
21207;DHT22;10761;48.532;8.026;2023-05-09T09:45:14;19.40;1.00
21207;DHT22;10761;48.532;8.026;2023-05-09T09:47:42;19.30;1.00
21207;DHT22;10761;48.532;8.026;2023-05-09T09:50:14;19.60;1.00
21207;DHT22;10761;48.532;8.026;2023-05-09T09:52:54;19.90;99.90
21207;DHT22;10761;48.532;8.026;2023-05-09T09:55:21;20.00;20.20
21207;DHT22;10761;48.532;8.026;2023-05-09T09:57:47;20.30;1.00
21207;DHT22;10761;48.532;8.026;2023-05-09T10:00:14;20.90;99.90
21207;DHT22;10761;48.532;8.026;2023-05-09T10:02:50;21.10;1.00
21207;DHT22;10761;48.532;8.026;2023-05-09T10:05:28;20.90;1.00
21207;DHT22;10761;48.532;8.026;2023-05-09T10:07:59;20.70;1.00
21207;DHT22;10761;48.532;8.026;2023-05-09T10:10:32;20.50;1.00
21207;DHT22;10761;48.532;8.026;2023-05-09T10:13:01;20.60;99.90
21207;DHT22;10761;48.532;8.026;2023-05-09T10:15:29;20.60;1.00
21207;DHT22;10761;48.532;8.026;2023-05-09T10:17:57;20.30;99.90
21207;DHT22;10761;48.532;8.026;2023-05-09T10:20:23;20.20;99.90
21207;DHT22;10761;48.532;8.026;2023-05-09T10:22:53;20.10;99.90
21207;DHT22;10761;48.532;8.026;2023-05-09T10:25:21;20.10;1.00
21207;DHT22;10761;48.532;8.026;2023-05-09T10:27:48;20.00;99.90
21207;DHT22;10761;48.532;8.026;2023-05-09T10:30:22;19.90;62.20
21207;DHT22;10761;48.532;8.026;2023-05-09T10:32:52;19.50;1.00
21207;DHT22;10761;48.532;8.026;2023-05-09T10:35:21;19.50;99.90
21207;DHT22;10761;48.532;8.026;2023-05-09T10:37:49;19.70;1.00
21207;DHT22;10761;48.532;8.026;2023-05-09T10:40:15;19.60;1.00
21207;DHT22;10761;48.532;8.026;2023-05-09T10:42:42;19.70;1.00
21207;DHT22;10761;48.532;8.026;2023-05-09T10:45:09;19.70;1.00
21207;DHT22;10761;48.532;8.026;2023-05-09T10:47:37;19.80;1.00
21207;DHT22;10761;48.532;8.026;2023-05-09T10:50:07;19.90;99.90
21207;DHT22;10761;48.532;8.026;2023-05-09T10:52:33;19.90;1.00
21207;DHT22;10761;48.532;8.026;2023-05-09T10:55:03;19.70;1.00
21207;DHT22;10761;48.532;8.026;2023-05-09T10:57:30;19.70;1.00
21207;DHT22;10761;48.532;8.026;2023-05-09T10:59:57;20.00;99.90
21207;DHT22;10761;48.532;8.026;2023-05-09T11:02:23;20.10;1.00
21207;DHT22;10761;48.532;8.026;2023-05-09T11:05:16;20.40;99.90
21207;DHT22;10761;48.532;8.026;2023-05-09T11:07:42;20.60;1.00
21207;DHT22;10761;48.532;8.026;2023-05-09T11:10:09;20.60;1.00
21207;DHT22;10761;48.532;8.026;2023-05-09T11:12:52;20.70;1.00
21207;DHT22;10761;48.532;8.026;2023-05-09T11:15:19;20.70;99.90
21207;DHT22;10761;48.532;8.026;2023-05-09T11:17:50;20.60;1.00
21207;DHT22;10761;48.532;8.026;2023-05-09T11:20:17;20.80;1.00
21207;DHT22;10761;48.532;8.026;2023-05-09T11:22:43;21.10;1.00
21207;DHT22;10761;48.532;8.026;2023-05-09T11:25:13;21.40;1.00
21207;DHT22;10761;48.532;8.026;2023-05-09T11:30:06;21.80;1.00
21207;DHT22;10761;48.532;8.026;2023-05-09T11:32:33;22.10;1.00
21207;DHT22;10761;48.532;8.026;2023-05-09T11:35:18;22.50;1.00
21207;DHT22;10761;48.532;8.026;2023-05-09T11:38:04;23.10;3.50
21207;DHT22;10761;48.532;8.026;2023-05-09T11:40:32;22.80;1.00
21207;DHT22;10761;48.532;8.026;2023-05-09T11:42:58;22.90;1.00
21207;DHT22;10761;48.532;8.026;2023-05-09T11:45:27;22.90;1.00
21207;DHT22;10761;48.532;8.026;2023-05-09T11:47:53;22.90;1.00
21207;DHT22;10761;48.532;8.026;2023-05-09T11:50:19;23.00;1.00
21207;DHT22;10761;48.532;8.026;2023-05-09T11:52:46;23.10;1.00
21207;DHT22;10761;48.532;8.026;2023-05-09T11:55:18;22.70;1.00
21207;DHT22;10761;48.532;8.026;2023-05-09T11:57:47;22.80;1.00
21207;DHT22;10761;48.532;8.026;2023-05-09T12:00:22;23.10;1.00
21207;DHT22;10761;48.532;8.026;2023-05-09T12:02:48;22.60;1.00
21207;DHT22;10761;48.532;8.026;2023-05-09T12:05:17;22.10;99.90
21207;DHT22;10761;48.532;8.026;2023-05-09T12:07:44;22.30;1.00
21207;DHT22;10761;48.532;8.026;2023-05-09T12:10:13;22.70;1.00
21207;DHT22;10761;48.532;8.026;2023-05-09T12:12:51;22.70;99.90
21207;DHT22;10761;48.532;8.026;2023-05-09T12:15:17;22.60;99.90
21207;DHT22;10761;48.532;8.026;2023-05-09T12:17:44;22.70;99.90
21207;DHT22;10761;48.532;8.026;2023-05-09T12:20:11;22.60;99.90
21207;DHT22;10761;48.532;8.026;2023-05-09T12:22:37;22.60;99.90
21207;DHT22;10761;48.532;8.026;2023-05-09T12:25:08;22.90;99.90
21207;DHT22;10761;48.532;8.026;2023-05-09T12:27:35;22.50;99.90
21207;DHT22;10761;48.532;8.026;2023-05-09T12:30:03;22.20;99.90
21207;DHT22;10761;48.532;8.026;2023-05-09T12:32:33;21.90;99.90
21207;DHT22;10761;48.532;8.026;2023-05-09T12:34:59;21.70;99.90
21207;DHT22;10761;48.532;8.026;2023-05-09T12:37:25;21.60;99.90
21207;DHT22;10761;48.532;8.026;2023-05-09T12:40:08;21.50;1.00
21207;DHT22;10761;48.532;8.026;2023-05-09T12:42:35;21.50;1.00
21207;DHT22;10761;48.532;8.026;2023-05-09T12:45:02;21.60;1.00
21207;DHT22;10761;48.532;8.026;2023-05-09T12:47:29;21.80;1.00
21207;DHT22;10761;48.532;8.026;2023-05-09T12:50:00;21.70;99.90
21207;DHT22;10761;48.532;8.026;2023-05-09T12:52:36;21.90;99.90
21207;DHT22;10761;48.532;8.026;2023-05-09T12:55:09;22.20;1.00
21207;DHT22;10761;48.532;8.026;2023-05-09T12:57:35;22.50;99.90
21207;DHT22;10761;48.532;8.026;2023-05-09T13:00:02;22.50;99.90
21207;DHT22;10761;48.532;8.026;2023-05-09T13:02:39;22.30;99.90
21207;DHT22;10761;48.532;8.026;2023-05-09T13:05:18;22.20;99.90
21207;DHT22;10761;48.532;8.026;2023-05-09T13:07:48;22.10;1.00
21207;DHT22;10761;48.532;8.026;2023-05-09T13:10:17;22.30;1.00
21207;DHT22;10761;48.532;8.026;2023-05-09T13:12:45;22.70;99.90
21207;DHT22;10761;48.532;8.026;2023-05-09T13:15:13;22.90;99.90
21207;DHT22;10761;48.532;8.026;2023-05-09T13:17:39;22.80;99.90
21207;DHT22;10761;48.532;8.026;2023-05-09T13:20:05;22.60;99.90
21207;DHT22;10761;48.532;8.026;2023-05-09T13:22:31;22.70;99.90
21207;DHT22;10761;48.532;8.026;2023-05-09T13:24:57;22.50;99.90
21207;DHT22;10761;48.532;8.026;2023-05-09T13:27:23;22.40;99.90
21207;DHT22;10761;48.532;8.026;2023-05-09T13:29:49;22.30;99.90
21207;DHT22;10761;48.532;8.026;2023-05-09T13:32:15;22.10;99.90
21207;DHT22;10761;48.532;8.026;2023-05-09T13:34:40;22.30;99.90
21207;DHT22;10761;48.532;8.026;2023-05-09T13:37:06;22.30;99.90
21207;DHT22;10761;48.532;8.026;2023-05-09T13:39:32;22.60;99.90
21207;DHT22;10761;48.532;8.026;2023-05-09T13:41:58;22.70;99.90
21207;DHT22;10761;48.532;8.026;2023-05-09T13:44:23;22.90;99.90
21207;DHT22;10761;48.532;8.026;2023-05-09T13:46:49;22.90;5.90
21207;DHT22;10761;48.532;8.026;2023-05-09T13:49:15;22.50;1.00
21207;DHT22;10761;48.532;8.026;2023-05-09T13:51:40;22.10;38.00
21207;DHT22;10761;48.532;8.026;2023-05-09T13:54:06;21.90;99.90
21207;DHT22;10761;48.532;8.026;2023-05-09T13:56:37;21.90;99.90
21207;DHT22;10761;48.532;8.026;2023-05-09T13:59:03;21.70;99.90
21207;DHT22;10761;48.532;8.026;2023-05-09T14:01:28;21.70;99.90
21207;DHT22;10761;48.532;8.026;2023-05-09T14:03:54;21.80;99.90
21207;DHT22;10761;48.532;8.026;2023-05-09T14:06:20;22.00;99.90
21207;DHT22;10761;48.532;8.026;2023-05-09T14:08:45;22.10;99.90
21207;DHT22;10761;48.532;8.026;2023-05-09T14:11:11;22.20;99.90
21207;DHT22;10761;48.532;8.026;2023-05-09T14:13:36;22.10;99.90
21207;DHT22;10761;48.532;8.026;2023-05-09T14:16:02;21.90;99.90
21207;DHT22;10761;48.532;8.026;2023-05-09T14:18:29;22.00;99.90
21207;DHT22;10761;48.532;8.026;2023-05-09T14:20:54;22.00;99.90
21207;DHT22;10761;48.532;8.026;2023-05-09T14:23:21;22.00;99.90
21207;DHT22;10761;48.532;8.026;2023-05-09T14:25:46;22.10;99.90
21207;DHT22;10761;48.532;8.026;2023-05-09T14:28:12;22.10;99.90
21207;DHT22;10761;48.532;8.026;2023-05-09T14:30:39;22.10;99.90
21207;DHT22;10761;48.532;8.026;2023-05-09T14:33:04;22.00;99.90
21207;DHT22;10761;48.532;8.026;2023-05-09T14:35:31;21.80;99.90
21207;DHT22;10761;48.532;8.026;2023-05-09T14:37:58;21.50;99.90
21207;DHT22;10761;48.532;8.026;2023-05-09T14:40:24;21.30;99.90
21207;DHT22;10761;48.532;8.026;2023-05-09T14:42:50;21.10;99.90
21207;DHT22;10761;48.532;8.026;2023-05-09T14:45:16;21.10;99.90
21207;DHT22;10761;48.532;8.026;2023-05-09T14:47:42;20.90;1.00
21207;DHT22;10761;48.532;8.026;2023-05-09T14:50:08;20.90;1.00
21207;DHT22;10761;48.532;8.026;2023-05-09T14:52:35;20.80;1.00
21207;DHT22;10761;48.532;8.026;2023-05-09T14:55:01;20.70;1.00
21207;DHT22;10761;48.532;8.026;2023-05-09T14:57:27;20.70;1.00
21207;DHT22;10761;48.532;8.026;2023-05-09T14:59:53;20.70;1.00
21207;DHT22;10761;48.532;8.026;2023-05-09T15:02:19;20.70;1.00
21207;DHT22;10761;48.532;8.026;2023-05-09T15:04:44;20.70;99.90
21207;DHT22;10761;48.532;8.026;2023-05-09T15:07:10;20.60;1.00
21207;DHT22;10761;48.532;8.026;2023-05-09T15:09:36;20.60;1.00
21207;DHT22;10761;48.532;8.026;2023-05-09T15:12:02;20.50;1.00
21207;DHT22;10761;48.532;8.026;2023-05-09T15:14:28;20.50;99.90
21207;DHT22;10761;48.532;8.026;2023-05-09T15:16:54;20.60;99.90
21207;DHT22;10761;48.532;8.026;2023-05-09T15:19:23;20.70;1.00
21207;DHT22;10761;48.532;8.026;2023-05-09T15:21:50;20.60;99.90
21207;DHT22;10761;48.532;8.026;2023-05-09T15:24:16;20.50;1.00
21207;DHT22;10761;48.532;8.026;2023-05-09T15:26:41;20.40;1.00
21207;DHT22;10761;48.532;8.026;2023-05-09T15:29:07;20.10;1.00
21207;DHT22;10761;48.532;8.026;2023-05-09T15:31:34;20.00;97.10
21207;DHT22;10761;48.532;8.026;2023-05-09T15:34:00;19.90;1.00
21207;DHT22;10761;48.532;8.026;2023-05-09T15:36:27;19.80;1.00
21207;DHT22;10761;48.532;8.026;2023-05-09T15:38:54;19.70;1.00
21207;DHT22;10761;48.532;8.026;2023-05-09T15:41:19;19.70;41.70
21207;DHT22;10761;48.532;8.026;2023-05-09T15:43:45;19.60;1.00
21207;DHT22;10761;48.532;8.026;2023-05-09T15:46:10;19.60;1.00
21207;DHT22;10761;48.532;8.026;2023-05-09T15:48:36;19.50;1.00